Currently 50°F in Murrieta, California, USA
50°F
56°F / 50°F
calm
0.00"
Wednesday, April 25, 2018 3:39 AM PDT

Murrieta, California Weather Summary
Last 36 Hours

Temperature Winds Hourly Humidity Dewpoint
Time Report Norm Report Norm Max Gusts Precip. Rpt. Norm Rpt. Norm Pressure
1Wed 03:39 AM  50.3°F  52°F  calm  1 mph  4 mph  0.00"  84%  87%  45°F  48°F  30.07"
3Wed 03:23 AM  50.2°F  52°F  calm  1 mph  none  ----  84%  86%  45°F  48°F  30.07"
Wed 03:00 AM  51.0°F  53°F  calm  1 mph  3 mph  0.00"  84%  86%  46°F  48°F  30.07"
Wed 02:00 AM  53.8°F  53°F  calm  2 mph  15 mph  0.00"  80%  85%  47°F  49°F  30.08"
Wed 01:00 AM  55.1°F  54°F  10 mph SW  2 mph  16 mph  0.00"  78%  85%  48°F  49°F  30.08"
2Wed 12:39 AM  56.4°F  54°F  calm  2 mph  12 mph  ----  60%  84%  42°F  49°F  30.08"
Wed 12:00 AM  55.9°F  55°F  3 mph SW  2 mph  9 mph  0.00"  66%  84%  44°F  50°F  30.07"
Tue 11:00 PM  56.5°F  55°F  2 mph SW  3 mph  5 mph  0.00"  69%  82%  46°F  50°F  30.06"
Tue 10:00 PM  58.6°F  57°F  2 mph W  4 mph  9 mph  0.00"  69%  80%  48°F  50°F  30.07"
Tue 09:00 PM  60.5°F  58°F  1 mph W  5 mph  13 mph  0.00"  72%  78%  51°F  51°F  30.05"
Tue 08:00 PM  61.5°F  61°F  3 mph SW  6 mph  18 mph  0.00"  71%  73%  52°F  51°F  30.03"
Tue 07:00 PM  67.7°F  64°F  8 mph SW  7 mph  18 mph  0.00"  55%  66%  50°F  52°F  30.01"
Tue 06:00 PM  72.1°F  68°F  calm  8 mph  24 mph  0.00"  46%  59%  49°F  52°F  29.99"
Tue 05:00 PM  71.1°F  71°F  8 mph NW  9 mph  24 mph  0.00"  47%  53%  49°F  52°F  29.98"
Tue 04:00 PM  77.1°F  73°F  1 mph N  9 mph  25 mph  0.00"  41%  50%  51°F  53°F  29.98"
Tue 03:00 PM  76.9°F  74°F  11 mph SW  8 mph  24 mph  0.00"  42%  48%  51°F  53°F  29.99"
Tue 02:00 PM  80.4°F  74°F  9 mph W  8 mph  23 mph  0.00"  33%  47%  48°F  52°F  29.99"
Tue 01:00 PM  80.2°F  74°F  1 mph N  7 mph  20 mph  0.00"  30%  47%  45°F  52°F  30.01"
Tue 12:00 PM  79.4°F  72°F  8 mph SW  5 mph  18 mph  0.00"  29%  49%  43°F  51°F  30.03"
Tue 11:00 AM  78.9°F  69°F  5 mph SW  5 mph  8 mph  0.00"  31%  55%  44°F  52°F  30.04"
Tue 10:00 AM  73.3°F  65°F  4 mph SE  4 mph  7 mph  0.00"  30%  63%  38°F  52°F  30.04"
Tue 09:00 AM  67.4°F  61°F  3 mph NE  3 mph  7 mph  0.00"  50%  74%  48°F  52°F  30.04"
Tue 08:00 AM  59.2°F  56°F  calm  2 mph  none  0.00"  71%  83%  49°F  51°F  30.05"
Tue 07:00 AM  52.1°F  52°F  calm  1 mph  none  0.00"  73%  88%  43°F  48°F  30.04"
Tue 06:00 AM  50.5°F  51°F  calm  1 mph  4 mph  0.00"  73%  88%  42°F  48°F  30.02"
Tue 05:00 AM  51.4°F  52°F  2 mph SW  1 mph  6 mph  0.00"  69%  87%  41°F  48°F  30.01"
Tue 04:00 AM  52.4°F  52°F  calm  2 mph  2 mph  0.00"  76%  87%  45°F  48°F  30.00"
Tue 03:00 AM  53.5°F  53°F  calm  2 mph  6 mph  0.00"  71%  86%  44°F  48°F  30.02"
Tue 02:00 AM  54.5°F  53°F  3 mph SW  2 mph  7 mph  0.00"  73%  85%  46°F  49°F  30.03"
Tue 01:00 AM  56.3°F  54°F  3 mph SW  2 mph  8 mph  0.00"  70%  84%  46°F  49°F  30.04"
Tue 12:00 AM  57.0°F  55°F  calm  2 mph  3 mph  0.00"  79%  83%  50°F  49°F  30.05"
Mon 11:00 PM  58.2°F  55°F  calm  3 mph  none  0.00"  78%  82%  51°F  50°F  30.06"
Mon 10:00 PM  58.8°F  57°F  calm  4 mph  none  0.00"  77%  80%  51°F  50°F  30.06"
Mon 09:00 PM  60.2°F  58°F  calm  5 mph  14 mph  0.00"  73%  77%  51°F  51°F  30.04"
Mon 08:00 PM  60.9°F  60°F  calm  6 mph  19 mph  0.00"  76%  72%  53°F  51°F  30.02"
Mon 07:00 PM  64.8°F  64°F  10 mph SW  7 mph  24 mph  0.00"  69%  65%  54°F  51°F  29.99"
Mon 06:00 PM  74.2°F  68°F  15 mph SW  8 mph  21 mph  0.00"  47%  58%  52°F  52°F  29.97"
Mon 05:00 PM  83.0°F  71°F  11 mph SW  9 mph  18 mph  0.00"  23%  52%  40°F  52°F  29.96"
Mon 04:00 PM  86.4°F  73°F  10 mph W  9 mph  21 mph  0.00"  18%  49%  37°F  52°F  29.96"

  1. Current weather data. No green row appears if the current weather data is also the high or low for the current day.
  2. High temperature for the current day.
  3. Low temperature for the current day.

The Murrieta weather pages are a service of WeatherCurrents. Murrieta, California is located in the Temecula Valley, in southwestern Riverside County, at the junctions of the Interstate 15 and 215 highways.
Copyright ©Wed Apr 25 03:39:34 PDT 2018  WeatherCurrents. All rights reserved. - Submit questions and comments - Privacy Policy

This page automatically refreshes every 10 minutes.